sensor_id;sensor_type;location;lat;lon;timestamp;P1;durP1;ratioP1;P2;durP2;ratioP2
417;SDS011;49;48.530;9.200;2022-08-02T00:02:04;5.50;;;3.90;;
417;SDS011;49;48.530;9.200;2022-08-02T00:04:31;7.93;;;4.30;;
417;SDS011;49;48.530;9.200;2022-08-02T00:06:58;8.33;;;3.80;;
417;SDS011;49;48.530;9.200;2022-08-02T00:09:27;5.33;;;4.40;;
417;SDS011;49;48.530;9.200;2022-08-02T00:11:54;10.73;;;5.23;;
417;SDS011;49;48.530;9.200;2022-08-02T00:14:20;9.20;;;4.07;;
417;SDS011;49;48.530;9.200;2022-08-02T00:16:47;5.40;;;4.40;;
417;SDS011;49;48.530;9.200;2022-08-02T00:19:14;6.93;;;5.27;;
417;SDS011;49;48.530;9.200;2022-08-02T00:21:41;5.97;;;4.30;;
417;SDS011;49;48.530;9.200;2022-08-02T00:24:08;7.67;;;4.00;;
417;SDS011;49;48.530;9.200;2022-08-02T00:26:37;8.93;;;4.87;;
417;SDS011;49;48.530;9.200;2022-08-02T00:29:04;5.20;;;3.87;;
417;SDS011;49;48.530;9.200;2022-08-02T00:31:33;5.60;;;4.10;;
417;SDS011;49;48.530;9.200;2022-08-02T00:33:59;6.27;;;3.97;;
417;SDS011;49;48.530;9.200;2022-08-02T00:36:28;6.83;;;4.03;;
417;SDS011;49;48.530;9.200;2022-08-02T00:38:55;8.53;;;4.07;;
417;SDS011;49;48.530;9.200;2022-08-02T00:41:22;9.50;;;4.40;;
417;SDS011;49;48.530;9.200;2022-08-02T00:43:51;6.57;;;4.33;;
417;SDS011;49;48.530;9.200;2022-08-02T00:46:18;6.53;;;4.50;;
417;SDS011;49;48.530;9.200;2022-08-02T00:48:46;5.97;;;4.20;;
417;SDS011;49;48.530;9.200;2022-08-02T00:51:13;4.93;;;3.47;;
417;SDS011;49;48.530;9.200;2022-08-02T00:53:41;8.00;;;4.10;;
417;SDS011;49;48.530;9.200;2022-08-02T00:56:08;9.13;;;3.70;;
417;SDS011;49;48.530;9.200;2022-08-02T00:58:36;10.40;;;4.20;;
417;SDS011;49;48.530;9.200;2022-08-02T01:01:05;6.63;;;3.63;;
417;SDS011;49;48.530;9.200;2022-08-02T01:03:32;9.13;;;4.10;;
417;SDS011;49;48.530;9.200;2022-08-02T01:05:59;7.27;;;4.10;;
417;SDS011;49;48.530;9.200;2022-08-02T01:08:26;12.33;;;4.40;;
417;SDS011;49;48.530;9.200;2022-08-02T01:10:53;7.67;;;3.80;;
417;SDS011;49;48.530;9.200;2022-08-02T01:13:20;7.43;;;3.93;;
417;SDS011;49;48.530;9.200;2022-08-02T01:15:54;10.10;;;3.60;;
417;SDS011;49;48.530;9.200;2022-08-02T01:18:29;8.43;;;3.83;;
417;SDS011;49;48.530;9.200;2022-08-02T01:21:05;6.23;;;3.73;;
417;SDS011;49;48.530;9.200;2022-08-02T01:24:00;8.03;;;3.70;;
417;SDS011;49;48.530;9.200;2022-08-02T01:26:39;7.23;;;4.53;;
417;SDS011;49;48.530;9.200;2022-08-02T01:29:15;6.40;;;3.37;;
417;SDS011;49;48.530;9.200;2022-08-02T01:31:48;5.13;;;3.57;;
417;SDS011;49;48.530;9.200;2022-08-02T01:34:19;9.63;;;3.20;;
417;SDS011;49;48.530;9.200;2022-08-02T01:36:56;7.53;;;3.60;;
417;SDS011;49;48.530;9.200;2022-08-02T01:39:27;7.40;;;3.47;;
417;SDS011;49;48.530;9.200;2022-08-02T01:41:58;7.40;;;3.07;;
417;SDS011;49;48.530;9.200;2022-08-02T01:44:29;6.33;;;3.57;;
417;SDS011;49;48.530;9.200;2022-08-02T01:47:00;4.60;;;3.27;;
417;SDS011;49;48.530;9.200;2022-08-02T01:49:29;4.03;;;3.27;;
417;SDS011;49;48.530;9.200;2022-08-02T01:51:59;6.77;;;3.20;;
417;SDS011;49;48.530;9.200;2022-08-02T01:54:46;6.50;;;3.03;;
417;SDS011;49;48.530;9.200;2022-08-02T01:57:17;5.70;;;3.07;;
417;SDS011;49;48.530;9.200;2022-08-02T01:59:49;7.87;;;3.43;;
417;SDS011;49;48.530;9.200;2022-08-02T02:02:18;5.23;;;3.20;;
417;SDS011;49;48.530;9.200;2022-08-02T02:04:47;6.10;;;3.03;;
417;SDS011;49;48.530;9.200;2022-08-02T02:07:15;10.83;;;3.93;;
417;SDS011;49;48.530;9.200;2022-08-02T02:09:43;3.97;;;3.00;;
417;SDS011;49;48.530;9.200;2022-08-02T02:12:12;5.73;;;3.57;;
417;SDS011;49;48.530;9.200;2022-08-02T02:14:40;4.80;;;3.20;;
417;SDS011;49;48.530;9.200;2022-08-02T02:17:10;6.87;;;2.93;;
417;SDS011;49;48.530;9.200;2022-08-02T02:19:38;5.07;;;3.30;;
417;SDS011;49;48.530;9.200;2022-08-02T02:22:07;8.27;;;3.90;;
417;SDS011;49;48.530;9.200;2022-08-02T02:24:34;4.10;;;3.27;;
417;SDS011;49;48.530;9.200;2022-08-02T02:27:01;5.10;;;3.03;;
417;SDS011;49;48.530;9.200;2022-08-02T02:29:30;3.87;;;2.90;;
417;SDS011;49;48.530;9.200;2022-08-02T02:31:59;3.07;;;2.63;;
417;SDS011;49;48.530;9.200;2022-08-02T02:34:29;3.07;;;2.70;;
417;SDS011;49;48.530;9.200;2022-08-02T02:36:59;4.43;;;3.10;;
417;SDS011;49;48.530;9.200;2022-08-02T02:39:28;5.30;;;3.50;;
417;SDS011;49;48.530;9.200;2022-08-02T02:41:59;3.90;;;2.90;;
417;SDS011;49;48.530;9.200;2022-08-02T02:44:29;6.93;;;3.83;;
417;SDS011;49;48.530;9.200;2022-08-02T02:46:58;11.10;;;3.07;;
417;SDS011;49;48.530;9.200;2022-08-02T02:49:28;7.53;;;2.83;;
417;SDS011;49;48.530;9.200;2022-08-02T02:51:59;7.70;;;4.27;;
417;SDS011;49;48.530;9.200;2022-08-02T02:54:28;5.53;;;3.50;;
417;SDS011;49;48.530;9.200;2022-08-02T02:56:57;7.90;;;3.63;;
417;SDS011;49;48.530;9.200;2022-08-02T02:59:25;11.27;;;3.83;;
417;SDS011;49;48.530;9.200;2022-08-02T03:01:53;12.53;;;4.03;;
417;SDS011;49;48.530;9.200;2022-08-02T03:04:20;7.53;;;3.47;;
417;SDS011;49;48.530;9.200;2022-08-02T03:06:50;6.17;;;3.30;;
417;SDS011;49;48.530;9.200;2022-08-02T03:09:17;5.10;;;3.60;;
417;SDS011;49;48.530;9.200;2022-08-02T03:11:44;17.70;;;3.70;;
417;SDS011;49;48.530;9.200;2022-08-02T03:14:11;8.83;;;4.60;;
417;SDS011;49;48.530;9.200;2022-08-02T03:16:42;7.47;;;3.73;;
417;SDS011;49;48.530;9.200;2022-08-02T03:19:10;7.70;;;3.00;;
417;SDS011;49;48.530;9.200;2022-08-02T03:21:37;6.23;;;3.20;;
417;SDS011;49;48.530;9.200;2022-08-02T03:24:06;4.43;;;2.83;;
417;SDS011;49;48.530;9.200;2022-08-02T03:26:33;10.50;;;3.40;;
417;SDS011;49;48.530;9.200;2022-08-02T03:29:00;7.53;;;3.00;;
417;SDS011;49;48.530;9.200;2022-08-02T03:31:28;10.23;;;2.90;;
417;SDS011;49;48.530;9.200;2022-08-02T03:33:55;5.70;;;2.83;;
417;SDS011;49;48.530;9.200;2022-08-02T03:36:25;4.30;;;2.83;;
417;SDS011;49;48.530;9.200;2022-08-02T03:38:53;3.70;;;3.00;;
417;SDS011;49;48.530;9.200;2022-08-02T03:41:22;3.43;;;3.00;;
417;SDS011;49;48.530;9.200;2022-08-02T03:43:50;12.33;;;4.80;;
417;SDS011;49;48.530;9.200;2022-08-02T03:46:19;4.37;;;3.23;;
417;SDS011;49;48.530;9.200;2022-08-02T03:48:49;9.27;;;3.20;;
417;SDS011;49;48.530;9.200;2022-08-02T03:51:17;4.70;;;3.30;;
417;SDS011;49;48.530;9.200;2022-08-02T03:53:44;10.77;;;3.57;;
417;SDS011;49;48.530;9.200;2022-08-02T03:56:12;5.57;;;3.30;;
417;SDS011;49;48.530;9.200;2022-08-02T03:58:42;17.63;;;4.17;;
417;SDS011;49;48.530;9.200;2022-08-02T04:01:09;13.60;;;3.20;;
417;SDS011;49;48.530;9.200;2022-08-02T04:03:36;3.93;;;2.97;;
417;SDS011;49;48.530;9.200;2022-08-02T04:06:03;8.40;;;3.20;;
417;SDS011;49;48.530;9.200;2022-08-02T04:08:30;4.70;;;3.60;;
417;SDS011;49;48.530;9.200;2022-08-02T04:10:57;4.00;;;2.87;;
417;SDS011;49;48.530;9.200;2022-08-02T04:13:42;4.70;;;3.50;;
417;SDS011;49;48.530;9.200;2022-08-02T04:16:11;14.93;;;3.57;;
417;SDS011;49;48.530;9.200;2022-08-02T04:18:43;13.83;;;3.60;;
417;SDS011;49;48.530;9.200;2022-08-02T04:21:15;11.60;;;3.30;;
417;SDS011;49;48.530;9.200;2022-08-02T04:23:46;8.03;;;3.70;;
417;SDS011;49;48.530;9.200;2022-08-02T04:26:15;12.37;;;3.93;;
417;SDS011;49;48.530;9.200;2022-08-02T04:28:44;8.17;;;4.00;;
417;SDS011;49;48.530;9.200;2022-08-02T04:31:13;6.83;;;3.50;;
417;SDS011;49;48.530;9.200;2022-08-02T04:33:42;7.13;;;4.33;;
417;SDS011;49;48.530;9.200;2022-08-02T04:36:09;5.20;;;3.47;;
417;SDS011;49;48.530;9.200;2022-08-02T04:38:38;3.83;;;3.43;;
417;SDS011;49;48.530;9.200;2022-08-02T04:41:05;5.40;;;2.93;;
417;SDS011;49;48.530;9.200;2022-08-02T04:43:32;4.80;;;3.40;;
417;SDS011;49;48.530;9.200;2022-08-02T04:46:01;10.23;;;3.90;;
417;SDS011;49;48.530;9.200;2022-08-02T04:48:29;6.33;;;3.50;;
417;SDS011;49;48.530;9.200;2022-08-02T04:50:56;5.93;;;3.20;;
417;SDS011;49;48.530;9.200;2022-08-02T04:53:23;5.00;;;2.67;;
417;SDS011;49;48.530;9.200;2022-08-02T04:55:50;3.73;;;3.10;;
417;SDS011;49;48.530;9.200;2022-08-02T04:58:16;6.70;;;3.37;;
417;SDS011;49;48.530;9.200;2022-08-02T05:00:43;11.83;;;3.67;;
417;SDS011;49;48.530;9.200;2022-08-02T05:03:12;5.90;;;3.70;;
417;SDS011;49;48.530;9.200;2022-08-02T05:05:39;4.40;;;3.27;;
417;SDS011;49;48.530;9.200;2022-08-02T05:08:06;6.00;;;2.97;;
417;SDS011;49;48.530;9.200;2022-08-02T05:10:33;4.70;;;3.10;;
417;SDS011;49;48.530;9.200;2022-08-02T05:13:02;5.63;;;3.60;;
417;SDS011;49;48.530;9.200;2022-08-02T05:15:29;4.30;;;3.40;;
417;SDS011;49;48.530;9.200;2022-08-02T05:17:56;4.50;;;3.40;;
417;SDS011;49;48.530;9.200;2022-08-02T05:20:25;4.30;;;3.10;;
417;SDS011;49;48.530;9.200;2022-08-02T05:22:51;6.57;;;3.97;;
417;SDS011;49;48.530;9.200;2022-08-02T05:25:18;17.23;;;3.43;;
417;SDS011;49;48.530;9.200;2022-08-02T05:27:45;7.80;;;3.20;;
417;SDS011;49;48.530;9.200;2022-08-02T05:30:12;6.73;;;5.10;;
417;SDS011;49;48.530;9.200;2022-08-02T05:32:43;5.13;;;3.33;;
417;SDS011;49;48.530;9.200;2022-08-02T05:35:11;7.90;;;3.33;;
417;SDS011;49;48.530;9.200;2022-08-02T05:37:40;6.90;;;3.00;;
417;SDS011;49;48.530;9.200;2022-08-02T05:40:07;8.17;;;3.23;;
417;SDS011;49;48.530;9.200;2022-08-02T05:42:35;8.40;;;3.27;;
417;SDS011;49;48.530;9.200;2022-08-02T05:45:03;7.83;;;2.83;;
417;SDS011;49;48.530;9.200;2022-08-02T05:47:30;7.40;;;3.30;;
417;SDS011;49;48.530;9.200;2022-08-02T05:49:57;4.13;;;3.00;;
417;SDS011;49;48.530;9.200;2022-08-02T05:52:25;3.30;;;2.77;;
417;SDS011;49;48.530;9.200;2022-08-02T05:55:03;11.50;;;2.37;;
417;SDS011;49;48.530;9.200;2022-08-02T05:57:36;3.10;;;2.03;;
417;SDS011;49;48.530;9.200;2022-08-02T06:00:08;6.30;;;2.47;;
417;SDS011;49;48.530;9.200;2022-08-02T06:02:47;6.13;;;2.77;;
417;SDS011;49;48.530;9.200;2022-08-02T06:05:44;5.30;;;2.50;;
417;SDS011;49;48.530;9.200;2022-08-02T06:08:20;3.40;;;2.33;;
417;SDS011;49;48.530;9.200;2022-08-02T06:10:59;6.07;;;2.60;;
417;SDS011;49;48.530;9.200;2022-08-02T06:13:28;2.83;;;2.40;;
417;SDS011;49;48.530;9.200;2022-08-02T06:15:55;4.37;;;2.43;;
417;SDS011;49;48.530;9.200;2022-08-02T06:18:25;3.63;;;2.10;;
417;SDS011;49;48.530;9.200;2022-08-02T06:20:53;7.60;;;2.80;;
417;SDS011;49;48.530;9.200;2022-08-02T06:23:23;7.20;;;2.57;;
417;SDS011;49;48.530;9.200;2022-08-02T06:25:53;7.13;;;2.40;;
417;SDS011;49;48.530;9.200;2022-08-02T06:28:25;8.57;;;2.53;;
417;SDS011;49;48.530;9.200;2022-08-02T06:30:55;4.07;;;2.20;;
417;SDS011;49;48.530;9.200;2022-08-02T06:33:24;7.87;;;2.67;;
417;SDS011;49;48.530;9.200;2022-08-02T06:35:54;10.80;;;2.63;;
417;SDS011;49;48.530;9.200;2022-08-02T06:38:27;2.43;;;2.33;;
417;SDS011;49;48.530;9.200;2022-08-02T06:41:00;4.27;;;2.63;;
417;SDS011;49;48.530;9.200;2022-08-02T06:43:37;3.47;;;2.50;;
417;SDS011;49;48.530;9.200;2022-08-02T06:46:12;8.00;;;2.50;;
417;SDS011;49;48.530;9.200;2022-08-02T06:48:40;5.50;;;2.73;;
417;SDS011;49;48.530;9.200;2022-08-02T06:51:07;3.50;;;2.10;;
417;SDS011;49;48.530;9.200;2022-08-02T06:53:34;4.53;;;2.40;;
417;SDS011;49;48.530;9.200;2022-08-02T06:56:02;3.60;;;2.57;;
417;SDS011;49;48.530;9.200;2022-08-02T06:58:29;4.90;;;2.67;;
417;SDS011;49;48.530;9.200;2022-08-02T07:00:58;3.87;;;2.50;;
417;SDS011;49;48.530;9.200;2022-08-02T07:03:25;4.83;;;3.70;;
417;SDS011;49;48.530;9.200;2022-08-02T07:05:58;13.30;;;2.60;;
417;SDS011;49;48.530;9.200;2022-08-02T07:08:25;2.73;;;2.20;;
417;SDS011;49;48.530;9.200;2022-08-02T07:11:03;2.30;;;2.20;;
417;SDS011;49;48.530;9.200;2022-08-02T07:13:33;3.60;;;2.27;;
417;SDS011;49;48.530;9.200;2022-08-02T07:16:04;10.00;;;2.40;;
417;SDS011;49;48.530;9.200;2022-08-02T07:18:35;3.70;;;2.30;;
417;SDS011;49;48.530;9.200;2022-08-02T07:21:05;5.03;;;2.43;;
417;SDS011;49;48.530;9.200;2022-08-02T07:23:33;7.90;;;2.37;;
417;SDS011;49;48.530;9.200;2022-08-02T07:26:03;7.83;;;2.50;;
417;SDS011;49;48.530;9.200;2022-08-02T07:28:34;11.17;;;2.63;;
417;SDS011;49;48.530;9.200;2022-08-02T07:31:01;12.00;;;2.77;;
417;SDS011;49;48.530;9.200;2022-08-02T07:33:30;3.30;;;2.20;;
417;SDS011;49;48.530;9.200;2022-08-02T07:35:57;3.23;;;2.40;;
417;SDS011;49;48.530;9.200;2022-08-02T07:38:24;8.13;;;2.43;;
417;SDS011;49;48.530;9.200;2022-08-02T07:40:51;7.10;;;2.57;;
417;SDS011;49;48.530;9.200;2022-08-02T07:43:19;5.87;;;2.63;;
417;SDS011;49;48.530;9.200;2022-08-02T07:45:46;4.80;;;2.50;;
417;SDS011;49;48.530;9.200;2022-08-02T07:48:16;7.50;;;3.37;;
417;SDS011;49;48.530;9.200;2022-08-02T07:50:44;3.30;;;2.53;;
417;SDS011;49;48.530;9.200;2022-08-02T07:53:12;9.13;;;2.30;;
417;SDS011;49;48.530;9.200;2022-08-02T07:55:42;12.03;;;2.60;;
417;SDS011;49;48.530;9.200;2022-08-02T07:58:09;3.90;;;2.60;;
417;SDS011;49;48.530;9.200;2022-08-02T08:00:37;4.33;;;2.93;;
417;SDS011;49;48.530;9.200;2022-08-02T08:03:07;6.63;;;3.50;;
417;SDS011;49;48.530;9.200;2022-08-02T08:05:34;5.13;;;3.40;;
417;SDS011;49;48.530;9.200;2022-08-02T08:08:03;5.03;;;2.90;;
417;SDS011;49;48.530;9.200;2022-08-02T08:10:30;8.20;;;3.17;;
417;SDS011;49;48.530;9.200;2022-08-02T08:12:57;3.77;;;2.90;;
417;SDS011;49;48.530;9.200;2022-08-02T08:15:24;11.40;;;3.17;;
417;SDS011;49;48.530;9.200;2022-08-02T08:17:51;4.87;;;3.10;;
417;SDS011;49;48.530;9.200;2022-08-02T08:20:18;10.27;;;2.97;;
417;SDS011;49;48.530;9.200;2022-08-02T08:22:44;4.77;;;3.07;;
417;SDS011;49;48.530;9.200;2022-08-02T08:25:13;4.53;;;3.03;;
417;SDS011;49;48.530;9.200;2022-08-02T08:27:46;4.40;;;2.97;;
417;SDS011;49;48.530;9.200;2022-08-02T08:30:13;6.30;;;3.40;;
417;SDS011;49;48.530;9.200;2022-08-02T08:32:41;6.40;;;3.53;;
417;SDS011;49;48.530;9.200;2022-08-02T08:35:08;10.83;;;3.30;;
417;SDS011;49;48.530;9.200;2022-08-02T08:37:36;9.53;;;3.40;;
417;SDS011;49;48.530;9.200;2022-08-02T08:40:04;8.20;;;3.40;;
417;SDS011;49;48.530;9.200;2022-08-02T08:42:32;4.90;;;3.53;;
417;SDS011;49;48.530;9.200;2022-08-02T08:45:01;4.13;;;2.97;;
417;SDS011;49;48.530;9.200;2022-08-02T08:47:32;3.97;;;2.73;;
417;SDS011;49;48.530;9.200;2022-08-02T08:50:02;4.90;;;2.70;;
417;SDS011;49;48.530;9.200;2022-08-02T08:52:32;5.20;;;3.30;;
417;SDS011;49;48.530;9.200;2022-08-02T08:55:05;4.70;;;3.00;;
417;SDS011;49;48.530;9.200;2022-08-02T08:57:38;7.10;;;3.50;;
417;SDS011;49;48.530;9.200;2022-08-02T09:00:07;10.43;;;3.20;;
417;SDS011;49;48.530;9.200;2022-08-02T09:02:35;10.90;;;4.10;;
417;SDS011;49;48.530;9.200;2022-08-02T09:05:02;4.73;;;3.30;;
417;SDS011;49;48.530;9.200;2022-08-02T09:07:31;9.83;;;4.00;;
417;SDS011;49;48.530;9.200;2022-08-02T09:09:58;4.47;;;3.43;;
417;SDS011;49;48.530;9.200;2022-08-02T09:12:24;4.50;;;3.57;;
417;SDS011;49;48.530;9.200;2022-08-02T09:14:53;8.67;;;3.73;;
417;SDS011;49;48.530;9.200;2022-08-02T09:17:20;12.63;;;3.87;;
417;SDS011;49;48.530;9.200;2022-08-02T09:19:47;16.00;;;5.53;;
417;SDS011;49;48.530;9.200;2022-08-02T09:22:30;9.37;;;3.80;;
417;SDS011;49;48.530;9.200;2022-08-02T09:25:00;4.90;;;3.43;;
417;SDS011;49;48.530;9.200;2022-08-02T09:27:27;6.27;;;3.50;;
417;SDS011;49;48.530;9.200;2022-08-02T09:30:02;7.63;;;3.63;;
417;SDS011;49;48.530;9.200;2022-08-02T09:35:33;13.87;;;4.07;;
417;SDS011;49;48.530;9.200;2022-08-02T09:38:08;6.77;;;4.73;;
417;SDS011;49;48.530;9.200;2022-08-02T09:40:36;5.40;;;3.60;;
417;SDS011;49;48.530;9.200;2022-08-02T09:43:03;16.03;;;5.00;;
417;SDS011;49;48.530;9.200;2022-08-02T09:45:33;9.13;;;4.17;;
417;SDS011;49;48.530;9.200;2022-08-02T09:48:02;4.53;;;3.50;;
417;SDS011;49;48.530;9.200;2022-08-02T09:50:32;3.87;;;3.27;;
417;SDS011;49;48.530;9.200;2022-08-02T09:52:59;8.80;;;4.50;;
417;SDS011;49;48.530;9.200;2022-08-02T09:55:28;3.73;;;3.20;;
417;SDS011;49;48.530;9.200;2022-08-02T09:57:55;8.17;;;3.10;;
417;SDS011;49;48.530;9.200;2022-08-02T10:00:22;3.50;;;2.73;;
417;SDS011;49;48.530;9.200;2022-08-02T10:03:05;15.63;;;3.83;;
417;SDS011;49;48.530;9.200;2022-08-02T10:05:46;4.80;;;2.70;;
417;SDS011;49;48.530;9.200;2022-08-02T10:08:14;4.33;;;2.27;;
417;SDS011;49;48.530;9.200;2022-08-02T10:10:41;10.27;;;3.30;;
417;SDS011;49;48.530;9.200;2022-08-02T10:13:09;6.07;;;2.57;;
417;SDS011;49;48.530;9.200;2022-08-02T10:15:36;3.87;;;2.80;;
417;SDS011;49;48.530;9.200;2022-08-02T10:18:04;4.20;;;3.10;;
417;SDS011;49;48.530;9.200;2022-08-02T10:20:35;20.97;;;2.80;;
417;SDS011;49;48.530;9.200;2022-08-02T10:23:06;4.30;;;2.97;;
417;SDS011;49;48.530;9.200;2022-08-02T10:25:35;35.77;;;4.17;;
417;SDS011;49;48.530;9.200;2022-08-02T10:28:03;15.03;;;3.80;;
417;SDS011;49;48.530;9.200;2022-08-02T10:30:33;4.90;;;3.00;;
417;SDS011;49;48.530;9.200;2022-08-02T10:33:01;8.10;;;3.63;;
417;SDS011;49;48.530;9.200;2022-08-02T10:35:31;9.90;;;2.83;;
417;SDS011;49;48.530;9.200;2022-08-02T10:38:02;6.10;;;2.83;;
417;SDS011;49;48.530;9.200;2022-08-02T10:40:41;5.10;;;2.97;;
417;SDS011;49;48.530;9.200;2022-08-02T10:43:32;4.73;;;2.20;;
417;SDS011;49;48.530;9.200;2022-08-02T10:46:19;3.80;;;2.27;;
417;SDS011;49;48.530;9.200;2022-08-02T10:49:07;2.43;;;2.20;;
417;SDS011;49;48.530;9.200;2022-08-02T10:51:58;4.93;;;2.40;;
417;SDS011;49;48.530;9.200;2022-08-02T10:54:32;6.30;;;2.40;;
417;SDS011;49;48.530;9.200;2022-08-02T10:57:00;2.80;;;2.50;;
417;SDS011;49;48.530;9.200;2022-08-02T10:59:29;3.03;;;2.27;;
417;SDS011;49;48.530;9.200;2022-08-02T11:01:57;3.10;;;2.70;;
417;SDS011;49;48.530;9.200;2022-08-02T11:04:28;3.57;;;2.60;;
417;SDS011;49;48.530;9.200;2022-08-02T11:07:10;3.40;;;2.90;;
417;SDS011;49;48.530;9.200;2022-08-02T11:09:39;5.13;;;2.50;;
417;SDS011;49;48.530;9.200;2022-08-02T11:12:07;5.20;;;2.60;;
417;SDS011;49;48.530;9.200;2022-08-02T11:14:36;6.40;;;2.60;;
417;SDS011;49;48.530;9.200;2022-08-02T11:17:04;3.13;;;2.50;;
417;SDS011;49;48.530;9.200;2022-08-02T11:19:33;5.30;;;3.10;;
417;SDS011;49;48.530;9.200;2022-08-02T11:22:22;6.40;;;2.80;;
417;SDS011;49;48.530;9.200;2022-08-02T11:24:48;5.30;;;2.90;;
417;SDS011;49;48.530;9.200;2022-08-02T11:27:17;3.13;;;2.77;;
417;SDS011;49;48.530;9.200;2022-08-02T11:29:45;4.80;;;2.90;;
417;SDS011;49;48.530;9.200;2022-08-02T11:32:14;7.80;;;2.57;;
417;SDS011;49;48.530;9.200;2022-08-02T11:34:46;3.53;;;2.57;;
417;SDS011;49;48.530;9.200;2022-08-02T11:37:28;6.53;;;2.80;;
417;SDS011;49;48.530;9.200;2022-08-02T11:39:55;3.03;;;2.87;;
417;SDS011;49;48.530;9.200;2022-08-02T11:42:29;4.10;;;2.40;;
417;SDS011;49;48.530;9.200;2022-08-02T11:44:57;4.43;;;2.27;;
417;SDS011;49;48.530;9.200;2022-08-02T11:47:25;5.33;;;2.53;;
417;SDS011;49;48.530;9.200;2022-08-02T11:49:52;5.83;;;2.70;;
417;SDS011;49;48.530;9.200;2022-08-02T11:52:32;2.60;;;2.33;;
417;SDS011;49;48.530;9.200;2022-08-02T11:55:00;4.13;;;2.60;;
417;SDS011;49;48.530;9.200;2022-08-02T11:57:29;3.60;;;2.63;;
417;SDS011;49;48.530;9.200;2022-08-02T11:59:56;3.30;;;2.63;;
417;SDS011;49;48.530;9.200;2022-08-02T12:02:23;3.77;;;2.30;;
417;SDS011;49;48.530;9.200;2022-08-02T12:04:52;4.73;;;2.70;;
417;SDS011;49;48.530;9.200;2022-08-02T12:07:24;5.50;;;2.63;;
417;SDS011;49;48.530;9.200;2022-08-02T12:09:55;2.87;;;2.23;;
417;SDS011;49;48.530;9.200;2022-08-02T12:12:25;3.40;;;2.90;;
417;SDS011;49;48.530;9.200;2022-08-02T12:14:53;7.17;;;2.77;;
417;SDS011;49;48.530;9.200;2022-08-02T12:17:21;3.17;;;2.40;;
417;SDS011;49;48.530;9.200;2022-08-02T12:20:06;6.20;;;2.63;;
417;SDS011;49;48.530;9.200;2022-08-02T12:22:34;3.13;;;2.43;;
417;SDS011;49;48.530;9.200;2022-08-02T12:25:15;2.97;;;2.70;;
417;SDS011;49;48.530;9.200;2022-08-02T12:27:43;4.33;;;2.77;;
417;SDS011;49;48.530;9.200;2022-08-02T12:30:11;4.43;;;2.80;;
417;SDS011;49;48.530;9.200;2022-08-02T12:32:40;3.33;;;2.47;;
417;SDS011;49;48.530;9.200;2022-08-02T12:35:10;3.00;;;2.40;;
417;SDS011;49;48.530;9.200;2022-08-02T12:37:38;2.90;;;2.50;;
417;SDS011;49;48.530;9.200;2022-08-02T12:40:17;9.10;;;2.73;;
417;SDS011;49;48.530;9.200;2022-08-02T12:42:49;3.70;;;2.43;;
417;SDS011;49;48.530;9.200;2022-08-02T12:45:16;5.87;;;2.43;;
417;SDS011;49;48.530;9.200;2022-08-02T12:47:44;3.73;;;2.60;;
417;SDS011;49;48.530;9.200;2022-08-02T12:50:13;3.00;;;2.10;;
417;SDS011;49;48.530;9.200;2022-08-02T12:52:44;2.37;;;2.17;;
417;SDS011;49;48.530;9.200;2022-08-02T12:55:15;3.77;;;2.60;;
417;SDS011;49;48.530;9.200;2022-08-02T12:57:52;2.93;;;2.50;;
417;SDS011;49;48.530;9.200;2022-08-02T13:00:27;10.73;;;2.50;;
417;SDS011;49;48.530;9.200;2022-08-02T13:02:55;2.83;;;2.30;;
417;SDS011;49;48.530;9.200;2022-08-02T13:05:23;5.73;;;2.77;;
417;SDS011;49;48.530;9.200;2022-08-02T13:07:53;2.43;;;2.30;;
417;SDS011;49;48.530;9.200;2022-08-02T13:10:22;4.90;;;2.63;;
417;SDS011;49;48.530;9.200;2022-08-02T13:12:49;3.50;;;2.60;;
417;SDS011;49;48.530;9.200;2022-08-02T13:15:18;3.50;;;2.50;;
417;SDS011;49;48.530;9.200;2022-08-02T13:17:47;2.40;;;2.30;;
417;SDS011;49;48.530;9.200;2022-08-02T13:20:14;5.73;;;2.57;;
417;SDS011;49;48.530;9.200;2022-08-02T13:22:41;8.27;;;2.63;;
417;SDS011;49;48.530;9.200;2022-08-02T13:25:08;2.97;;;2.20;;
417;SDS011;49;48.530;9.200;2022-08-02T13:27:36;4.07;;;2.63;;
417;SDS011;49;48.530;9.200;2022-08-02T13:30:04;3.37;;;2.20;;
417;SDS011;49;48.530;9.200;2022-08-02T13:32:32;2.60;;;2.40;;
417;SDS011;49;48.530;9.200;2022-08-02T13:34:59;3.13;;;2.20;;
417;SDS011;49;48.530;9.200;2022-08-02T13:37:26;3.30;;;2.40;;
417;SDS011;49;48.530;9.200;2022-08-02T13:39:53;4.00;;;2.60;;
417;SDS011;49;48.530;9.200;2022-08-02T13:42:20;2.40;;;2.20;;
417;SDS011;49;48.530;9.200;2022-08-02T13:44:48;3.57;;;2.80;;
417;SDS011;49;48.530;9.200;2022-08-02T13:47:15;12.93;;;2.33;;
417;SDS011;49;48.530;9.200;2022-08-02T13:49:42;3.07;;;2.27;;
417;SDS011;49;48.530;9.200;2022-08-02T13:52:09;5.13;;;2.33;;
417;SDS011;49;48.530;9.200;2022-08-02T13:54:36;2.47;;;2.20;;
417;SDS011;49;48.530;9.200;2022-08-02T13:57:03;5.03;;;2.60;;
417;SDS011;49;48.530;9.200;2022-08-02T13:59:30;3.63;;;2.43;;
417;SDS011;49;48.530;9.200;2022-08-02T14:01:58;2.33;;;2.20;;
417;SDS011;49;48.530;9.200;2022-08-02T14:04:25;3.20;;;2.80;;
417;SDS011;49;48.530;9.200;2022-08-02T14:06:53;3.40;;;2.53;;
417;SDS011;49;48.530;9.200;2022-08-02T14:09:20;4.50;;;2.53;;
417;SDS011;49;48.530;9.200;2022-08-02T14:11:47;4.27;;;2.57;;
417;SDS011;49;48.530;9.200;2022-08-02T14:14:14;5.83;;;2.67;;
417;SDS011;49;48.530;9.200;2022-08-02T14:16:41;2.80;;;2.47;;
417;SDS011;49;48.530;9.200;2022-08-02T14:19:10;5.70;;;2.87;;
417;SDS011;49;48.530;9.200;2022-08-02T14:21:37;4.27;;;2.87;;
417;SDS011;49;48.530;9.200;2022-08-02T14:24:04;6.53;;;2.43;;
417;SDS011;49;48.530;9.200;2022-08-02T14:26:31;3.90;;;2.80;;
417;SDS011;49;48.530;9.200;2022-08-02T14:28:58;5.30;;;2.57;;
417;SDS011;49;48.530;9.200;2022-08-02T14:31:25;4.27;;;2.70;;
417;SDS011;49;48.530;9.200;2022-08-02T14:33:54;2.87;;;2.43;;
417;SDS011;49;48.530;9.200;2022-08-02T14:36:23;8.00;;;2.70;;
417;SDS011;49;48.530;9.200;2022-08-02T14:38:50;5.50;;;2.70;;
417;SDS011;49;48.530;9.200;2022-08-02T14:41:17;3.00;;;2.60;;
417;SDS011;49;48.530;9.200;2022-08-02T14:43:44;4.80;;;2.90;;
417;SDS011;49;48.530;9.200;2022-08-02T14:46:29;9.10;;;2.80;;
417;SDS011;49;48.530;9.200;2022-08-02T14:48:56;2.80;;;2.50;;
417;SDS011;49;48.530;9.200;2022-08-02T14:51:27;3.13;;;2.63;;
417;SDS011;49;48.530;9.200;2022-08-02T14:53:55;3.10;;;2.70;;
417;SDS011;49;48.530;9.200;2022-08-02T14:56:22;4.03;;;3.00;;
417;SDS011;49;48.530;9.200;2022-08-02T14:58:49;3.07;;;2.70;;
417;SDS011;49;48.530;9.200;2022-08-02T15:01:16;2.83;;;2.53;;
417;SDS011;49;48.530;9.200;2022-08-02T15:03:43;6.57;;;2.70;;
417;SDS011;49;48.530;9.200;2022-08-02T15:06:10;7.63;;;2.80;;
417;SDS011;49;48.530;9.200;2022-08-02T15:08:38;4.37;;;2.40;;
417;SDS011;49;48.530;9.200;2022-08-02T15:11:05;4.20;;;2.90;;
417;SDS011;49;48.530;9.200;2022-08-02T15:13:32;5.27;;;2.67;;
417;SDS011;49;48.530;9.200;2022-08-02T15:15:59;4.77;;;2.70;;
417;SDS011;49;48.530;9.200;2022-08-02T15:18:26;7.03;;;2.50;;
417;SDS011;49;48.530;9.200;2022-08-02T15:20:53;6.87;;;2.83;;
417;SDS011;49;48.530;9.200;2022-08-02T15:23:20;6.53;;;3.17;;
417;SDS011;49;48.530;9.200;2022-08-02T15:25:50;5.53;;;2.70;;
417;SDS011;49;48.530;9.200;2022-08-02T15:28:17;3.33;;;2.90;;
417;SDS011;49;48.530;9.200;2022-08-02T15:30:44;10.13;;;2.80;;
417;SDS011;49;48.530;9.200;2022-08-02T15:33:11;3.50;;;3.20;;
417;SDS011;49;48.530;9.200;2022-08-02T15:35:38;4.10;;;3.10;;
417;SDS011;49;48.530;9.200;2022-08-02T15:38:05;4.53;;;2.83;;
417;SDS011;49;48.530;9.200;2022-08-02T15:40:32;3.83;;;2.50;;
417;SDS011;49;48.530;9.200;2022-08-02T15:43:00;8.33;;;2.83;;
417;SDS011;49;48.530;9.200;2022-08-02T15:45:27;3.60;;;2.70;;
417;SDS011;49;48.530;9.200;2022-08-02T15:47:54;4.90;;;3.17;;
417;SDS011;49;48.530;9.200;2022-08-02T15:50:21;4.70;;;2.73;;
417;SDS011;49;48.530;9.200;2022-08-02T15:52:48;18.93;;;3.20;;
417;SDS011;49;48.530;9.200;2022-08-02T15:55:15;5.00;;;2.87;;
417;SDS011;49;48.530;9.200;2022-08-02T15:57:42;4.13;;;2.87;;
417;SDS011;49;48.530;9.200;2022-08-02T16:00:11;13.13;;;3.50;;
417;SDS011;49;48.530;9.200;2022-08-02T16:02:39;5.23;;;3.10;;
417;SDS011;49;48.530;9.200;2022-08-02T16:05:07;3.90;;;3.33;;
417;SDS011;49;48.530;9.200;2022-08-02T16:07:34;6.13;;;3.33;;
417;SDS011;49;48.530;9.200;2022-08-02T16:10:01;7.90;;;3.00;;
417;SDS011;49;48.530;9.200;2022-08-02T16:12:28;7.47;;;3.30;;
417;SDS011;49;48.530;9.200;2022-08-02T16:14:55;9.23;;;3.23;;
417;SDS011;49;48.530;9.200;2022-08-02T16:17:24;17.10;;;3.60;;